createdAt,value
2018-01-19T00:00:47.378Z,6.50
2018-01-19T00:03:14.238Z,6.60
2018-01-19T00:05:41.105Z,6.60
2018-01-19T00:08:08.014Z,6.50
2018-01-19T00:10:34.867Z,6.50
2018-01-19T00:13:01.799Z,6.50
2018-01-19T00:15:28.658Z,6.40
2018-01-19T00:17:55.550Z,6.40
2018-01-19T00:20:22.471Z,6.40
2018-01-19T00:22:49.338Z,6.50
2018-01-19T00:25:16.298Z,6.40
2018-01-19T00:27:43.919Z,6.30
2018-01-19T00:30:10.855Z,6.20
2018-01-19T00:32:37.729Z,6.30
2018-01-19T00:35:04.646Z,6.30
2018-01-19T00:37:31.572Z,6.30
2018-01-19T00:39:58.500Z,6.20
2018-01-19T00:42:26.115Z,6.20
2018-01-19T00:44:53.057Z,6.20
2018-01-19T00:47:19.956Z,6.20
2018-01-19T00:49:47.557Z,6.10
2018-01-19T00:52:14.491Z,6.10
2018-01-19T00:54:41.408Z,6.10
2018-01-19T00:57:09.103Z,6.00
2018-01-19T00:59:35.958Z,6.00
2018-01-19T01:02:02.946Z,6.00
2018-01-19T01:04:29.860Z,6.00
2018-01-19T01:06:56.786Z,6.00
2018-01-19T01:09:23.719Z,6.00
2018-01-19T01:11:50.643Z,6.00
2018-01-19T01:14:18.235Z,6.10
2018-01-19T01:16:45.174Z,6.10
2018-01-19T01:19:12.095Z,6.00
2018-01-19T01:21:39.016Z,6.00
2018-01-19T01:24:05.866Z,6.10
2018-01-19T01:26:32.784Z,6.10
2018-01-19T01:28:59.666Z,6.00
2018-01-19T01:31:26.582Z,6.10
2018-01-19T01:33:53.486Z,6.10
2018-01-19T01:36:20.338Z,6.10
2018-01-19T01:38:47.261Z,6.10
2018-01-19T01:41:14.980Z,6.10
2018-01-19T01:43:41.817Z,6.00
2018-01-19T01:46:08.751Z,6.10
2018-01-19T01:48:35.659Z,6.10
2018-01-19T01:51:03.379Z,6.00
2018-01-19T01:53:30.310Z,6.00
2018-01-19T01:55:57.166Z,5.90
2018-01-19T01:58:24.878Z,5.90
2018-01-19T02:00:52.536Z,5.90
2018-01-19T02:03:19.397Z,5.90
2018-01-19T02:05:47.094Z,5.80
2018-01-19T02:08:14.006Z,5.80
2018-01-19T02:10:41.746Z,5.80
2018-01-19T02:13:08.605Z,5.80
2018-01-19T02:15:36.267Z,5.90
2018-01-19T02:18:03.943Z,6.00
2018-01-19T02:20:31.563Z,6.10
2018-01-19T02:22:58.494Z,6.10
2018-01-19T02:25:25.356Z,6.00
2018-01-19T02:27:52.281Z,6.00
2018-01-19T02:30:19.191Z,5.90
2018-01-19T02:32:46.054Z,5.90
2018-01-19T02:35:12.970Z,6.00
2018-01-19T02:37:40.626Z,6.00
2018-01-19T02:40:07.590Z,5.90
2018-01-19T02:42:34.477Z,6.00
2018-01-19T02:45:01.410Z,6.10
2018-01-19T02:47:28.272Z,6.10
2018-01-19T02:49:55.142Z,6.00
2018-01-19T02:52:22.122Z,6.10
2018-01-19T02:54:48.984Z,6.10
2018-01-19T02:57:15.902Z,6.10
2018-01-19T02:59:43.494Z,6.10
2018-01-19T03:02:10.418Z,6.00
2018-01-19T03:04:37.266Z,6.00
2018-01-19T03:07:04.186Z,6.00
2018-01-19T03:09:31.112Z,6.00
2018-01-19T03:11:58.095Z,5.90
2018-01-19T03:14:25.704Z,5.90
2018-01-19T03:16:52.632Z,5.90
2018-01-19T03:19:19.487Z,5.70
2018-01-19T03:21:46.436Z,5.60
2018-01-19T03:24:13.298Z,5.50
2018-01-19T03:26:40.143Z,5.50
2018-01-19T03:29:07.048Z,5.40
2018-01-19T03:31:33.999Z,5.40
2018-01-19T03:34:00.921Z,5.40
2018-01-19T03:36:28.575Z,5.30
2018-01-19T03:38:56.157Z,5.30
2018-01-19T03:41:23.067Z,5.30
2018-01-19T03:43:49.912Z,5.40
2018-01-19T03:46:16.917Z,5.40
2018-01-19T03:48:43.881Z,5.40
2018-01-19T03:51:10.807Z,5.60
2018-01-19T03:53:37.743Z,5.50
2018-01-19T03:56:04.616Z,5.50
2018-01-19T03:58:32.323Z,5.50
2018-01-19T04:00:59.975Z,5.60
2018-01-19T04:03:27.599Z,5.70
2018-01-19T04:05:54.534Z,5.70
2018-01-19T04:08:21.387Z,5.70
2018-01-19T04:10:48.306Z,5.70
2018-01-19T04:13:15.146Z,5.80
2018-01-19T04:15:42.055Z,5.80
2018-01-19T04:18:08.950Z,5.90
2018-01-19T04:20:35.878Z,5.80
2018-01-19T04:23:02.843Z,5.90
2018-01-19T04:25:29.704Z,5.90
2018-01-19T04:27:56.553Z,5.80
2018-01-19T04:30:23.476Z,5.80
2018-01-19T04:32:50.397Z,5.80
2018-01-19T04:35:17.392Z,5.80
2018-01-19T04:37:44.290Z,5.70
2018-01-19T04:40:11.298Z,5.70
2018-01-19T04:42:38.151Z,5.60
2018-01-19T04:45:05.078Z,5.70
2018-01-19T04:47:32.054Z,5.70
2018-01-19T04:49:58.902Z,5.70
2018-01-19T04:52:26.550Z,5.70
2018-01-19T04:54:53.458Z,5.70
2018-01-19T04:57:20.447Z,5.60
2018-01-19T04:59:47.326Z,5.60
2018-01-19T05:02:14.235Z,5.50
2018-01-19T05:04:41.083Z,5.50
2018-01-19T05:07:08.024Z,5.60
2018-01-19T05:09:34.911Z,5.50
2018-01-19T05:12:01.840Z,5.40
2018-01-19T05:14:29.430Z,5.40
2018-01-19T05:16:56.290Z,5.40
2018-01-19T05:19:23.268Z,5.40
2018-01-19T05:21:50.123Z,5.40
2018-01-19T05:24:17.853Z,5.40
2018-01-19T05:26:46.642Z,5.40
2018-01-19T05:29:13.622Z,5.40
2018-01-19T05:31:40.489Z,5.50
2018-01-19T05:34:08.239Z,5.50
2018-01-19T05:36:36.225Z,5.50
2018-01-19T05:39:05.903Z,5.50
2018-01-19T05:41:33.647Z,5.40
2018-01-19T05:44:01.509Z,5.50
2018-01-19T05:46:29.878Z,5.40
2018-01-19T05:48:58.059Z,5.40
2018-01-19T05:51:26.784Z,5.40
2018-01-19T05:53:53.856Z,5.30
2018-01-19T05:56:20.711Z,5.40
2018-01-19T05:58:48.984Z,5.30
2018-01-19T06:01:15.843Z,5.40
2018-01-19T06:03:42.819Z,5.40
2018-01-19T06:06:13.590Z,5.40
2018-01-19T06:08:52.570Z,5.30
2018-01-19T06:11:22.191Z,5.30
2018-01-19T06:13:53.582Z,5.40
2018-01-19T06:16:26.284Z,5.40
2018-01-19T06:18:58.821Z,5.30
2018-01-19T06:21:27.599Z,5.50
2018-01-19T06:23:54.520Z,5.50
2018-01-19T06:26:21.434Z,5.60
2018-01-19T06:28:49.151Z,5.70
2018-01-19T06:31:16.067Z,5.70
2018-01-19T06:33:42.925Z,5.60
2018-01-19T06:36:09.843Z,5.60
2018-01-19T06:38:36.685Z,5.40
2018-01-19T06:41:03.614Z,5.50
2018-01-19T06:43:31.215Z,5.40
2018-01-19T06:45:58.150Z,5.40
2018-01-19T06:48:25.023Z,5.30
2018-01-19T06:50:51.955Z,5.20
2018-01-19T06:53:18.814Z,5.10
2018-01-19T06:55:45.731Z,5.10
2018-01-19T06:58:12.593Z,5.10
2018-01-19T07:00:39.580Z,5.20
2018-01-19T07:03:06.507Z,5.10
2018-01-19T07:05:33.448Z,5.00
2018-01-19T07:08:00.374Z,5.00
2018-01-19T07:10:27.234Z,5.00
2018-01-19T07:12:54.155Z,5.00
2018-01-19T07:15:21.006Z,4.90
2018-01-19T07:17:47.973Z,4.90
2018-01-19T07:20:15.812Z,4.80
2018-01-19T07:22:42.750Z,4.90
2018-01-19T07:25:09.578Z,4.90
2018-01-19T07:27:37.200Z,5.00
2018-01-19T07:30:04.180Z,5.00
2018-01-19T07:32:31.866Z,5.00
2018-01-19T07:34:58.726Z,5.00
2018-01-19T07:37:25.582Z,5.10
2018-01-19T07:39:52.575Z,5.20
2018-01-19T07:42:20.300Z,5.20
2018-01-19T07:44:47.301Z,5.20
2018-01-19T07:47:14.130Z,5.30
2018-01-19T07:49:41.858Z,5.30
2018-01-19T07:52:10.161Z,5.30
2018-01-19T07:54:38.282Z,5.30
2018-01-19T07:57:06.324Z,5.30
2018-01-19T07:59:33.998Z,5.30
2018-01-19T08:02:00.936Z,5.20
2018-01-19T08:04:34.874Z,5.30
2018-01-19T08:07:01.804Z,5.20
2018-01-19T08:09:34.105Z,5.30
2018-01-19T08:12:03.360Z,5.30
2018-01-19T08:14:31.287Z,5.30
2018-01-19T08:16:58.201Z,5.30
2018-01-19T08:19:25.066Z,5.40
2018-01-19T08:21:51.922Z,5.40
2018-01-19T08:24:18.883Z,5.30
2018-01-19T08:26:45.751Z,5.50
2018-01-19T08:29:13.336Z,5.50
2018-01-19T08:31:40.296Z,5.50
2018-01-19T08:34:07.664Z,5.40
2018-01-19T08:36:34.584Z,5.40
2018-01-19T08:39:02.706Z,5.50
2018-01-19T08:41:44.304Z,5.50
2018-01-19T08:44:25.581Z,5.40
2018-01-19T08:47:08.162Z,5.40
2018-01-19T08:49:52.043Z,5.50
2018-01-19T08:52:20.853Z,5.50
2018-01-19T08:54:48.458Z,5.80
2018-01-19T08:57:15.371Z,5.80
2018-01-19T08:59:43.099Z,6.00
2018-01-19T09:02:10.602Z,6.00
2018-01-19T09:04:37.455Z,6.10
2018-01-19T09:07:04.456Z,6.20
2018-01-19T09:09:31.391Z,6.10
2018-01-19T09:11:59.083Z,6.10
2018-01-19T09:14:26.225Z,6.20
2018-01-19T09:16:53.181Z,6.00
2018-01-19T09:19:20.987Z,6.20
2018-01-19T09:21:47.927Z,6.20
2018-01-19T09:24:14.822Z,6.30
2018-01-19T09:26:41.750Z,6.50
2018-01-19T09:29:08.619Z,6.80
2018-01-19T09:31:35.600Z,7.00
2018-01-19T09:34:02.623Z,7.00
2018-01-19T09:36:30.531Z,7.20
2018-01-19T09:38:57.454Z,7.10
2018-01-19T09:41:25.085Z,7.30
2018-01-19T09:43:52.081Z,7.30
2018-01-19T09:46:18.994Z,7.00
2018-01-19T09:48:45.936Z,7.10
2018-01-19T09:51:12.980Z,7.20
2018-01-19T09:53:39.829Z,7.40
2018-01-19T09:56:07.446Z,7.70
2018-01-19T09:58:34.366Z,7.70
2018-01-19T10:01:01.308Z,8.00
2018-01-19T10:03:28.254Z,7.90
2018-01-19T10:05:55.191Z,7.90
2018-01-19T10:08:22.812Z,7.70
2018-01-19T10:10:49.662Z,7.70
2018-01-19T10:13:16.604Z,7.80
2018-01-19T10:15:43.552Z,8.10
2018-01-19T10:18:10.415Z,8.10
2018-01-19T10:20:37.432Z,8.50
2018-01-19T10:23:04.298Z,8.90
2018-01-19T10:25:31.255Z,9.00
2018-01-19T10:27:58.192Z,9.00
2018-01-19T10:30:25.096Z,8.80
2018-01-19T10:32:52.031Z,8.60
2018-01-19T10:35:18.885Z,8.30
2018-01-19T10:37:45.755Z,8.70
2018-01-19T10:40:12.674Z,8.50
2018-01-19T10:42:39.541Z,8.60
2018-01-19T10:45:06.487Z,8.50
2018-01-19T10:47:33.403Z,8.80
2018-01-19T10:50:00.259Z,8.70
2018-01-19T10:52:27.231Z,8.60
2018-01-19T10:54:54.128Z,8.20
2018-01-19T10:57:21.790Z,8.10
2018-01-19T10:59:48.663Z,8.10
2018-01-19T11:02:15.627Z,8.10
2018-01-19T11:04:42.559Z,8.20
2018-01-19T11:07:09.443Z,8.30
2018-01-19T11:09:36.304Z,8.20
2018-01-19T11:12:03.986Z,8.10
2018-01-19T11:14:30.837Z,8.10
2018-01-19T11:16:57.766Z,8.40
2018-01-19T11:19:24.635Z,8.50
2018-01-19T11:21:51.572Z,8.60
2018-01-19T11:24:18.446Z,8.40
2018-01-19T11:26:45.350Z,8.40
2018-01-19T11:29:24.781Z,8.40
2018-01-19T11:31:52.355Z,8.20
2018-01-19T11:34:30.492Z,8.20
2018-01-19T11:36:59.166Z,8.10
2018-01-19T11:39:26.023Z,8.00
2018-01-19T11:41:52.870Z,8.10
2018-01-19T11:44:19.788Z,8.10
2018-01-19T11:46:46.639Z,8.30
2018-01-19T11:49:14.723Z,8.50
2018-01-19T11:51:41.577Z,8.60
2018-01-19T11:54:08.464Z,8.60
2018-01-19T11:56:35.378Z,8.70
2018-01-19T11:59:02.289Z,8.60
2018-01-19T12:01:29.360Z,8.70
2018-01-19T12:03:56.785Z,8.90
2018-01-19T12:06:23.711Z,8.90
2018-01-19T12:08:51.438Z,8.90
2018-01-19T12:11:18.311Z,8.80
2018-01-19T12:13:45.226Z,8.80
2018-01-19T12:16:12.102Z,8.80
2018-01-19T12:18:39.058Z,8.80
2018-01-19T12:21:06.685Z,8.50
2018-01-19T12:23:33.614Z,8.60
2018-01-19T12:26:00.567Z,8.50
2018-01-19T12:28:27.470Z,8.90
2018-01-19T12:30:55.170Z,9.30
2018-01-19T12:33:22.088Z,9.30
2018-01-19T12:35:49.010Z,9.60
2018-01-19T12:38:15.937Z,9.90
2018-01-19T12:40:44.740Z,10.00
2018-01-19T12:43:20.838Z,10.20
2018-01-19T12:45:51.375Z,10.30
2018-01-19T12:48:24.676Z,10.70
2018-01-19T12:50:54.535Z,10.60
2018-01-19T12:53:22.176Z,10.60
2018-01-19T12:55:51.611Z,10.40
2018-01-19T12:58:24.592Z,10.30
2018-01-19T13:00:55.020Z,10.00
2018-01-19T13:03:25.561Z,9.60
2018-01-19T13:05:55.786Z,9.60
2018-01-19T13:08:34.141Z,9.60
2018-01-19T13:11:01.584Z,9.30
2018-01-19T13:16:13.812Z,8.90
2018-01-19T13:18:44.069Z,8.80
2018-01-19T13:21:11.410Z,8.90
2018-01-19T13:23:38.334Z,8.80
2018-01-19T13:26:05.780Z,8.90
2018-01-19T13:28:37.142Z,8.60
2018-01-19T13:31:07.374Z,8.30
2018-01-19T13:33:35.998Z,8.30
2018-01-19T13:36:03.652Z,8.50
2018-01-19T13:38:30.573Z,8.30
2018-01-19T13:40:58.394Z,8.60
2018-01-19T13:43:29.483Z,8.80
2018-01-19T13:45:56.408Z,8.90
2018-01-19T13:48:23.406Z,8.70
2018-01-19T13:50:51.314Z,8.60
2018-01-19T13:53:21.053Z,8.50
2018-01-19T13:55:47.919Z,8.50
2018-01-19T13:58:14.847Z,8.60
2018-01-19T14:00:41.746Z,8.60
2018-01-19T14:03:10.444Z,8.60
2018-01-19T14:05:38.992Z,8.30
2018-01-19T14:08:05.846Z,8.30
2018-01-19T14:10:37.638Z,8.20
2018-01-19T14:13:04.705Z,8.30
2018-01-19T14:15:31.787Z,8.40
2018-01-19T14:17:58.638Z,8.30
2018-01-19T14:20:25.562Z,8.40
2018-01-19T14:23:00.067Z,8.30
2018-01-19T14:25:37.028Z,8.30
2018-01-19T14:28:04.683Z,8.20
2018-01-19T14:30:37.520Z,7.90
2018-01-19T14:33:04.694Z,8.00
2018-01-19T14:35:32.065Z,7.90
2018-01-19T14:38:00.052Z,7.90
2018-01-19T14:40:27.730Z,8.00
2018-01-19T14:42:54.581Z,7.90
2018-01-19T14:49:00.849Z,7.80
2018-01-19T14:51:38.678Z,7.70
2018-01-19T14:54:05.933Z,7.70
2018-01-19T14:56:33.171Z,7.60
2018-01-19T14:59:00.092Z,7.40
2018-01-19T15:01:27.566Z,7.40
2018-01-19T15:03:58.148Z,7.30
2018-01-19T15:06:25.006Z,7.30
2018-01-19T15:08:51.915Z,7.20
2018-01-19T15:11:18.782Z,7.00
2018-01-19T15:13:45.716Z,7.00
2018-01-19T15:16:12.734Z,6.90
2018-01-19T15:18:39.614Z,6.80
2018-01-19T15:21:06.494Z,6.80
2018-01-19T15:23:33.447Z,6.80
2018-01-19T15:26:00.343Z,6.70
2018-01-19T15:28:27.199Z,6.70
2018-01-19T15:30:54.227Z,6.60
2018-01-19T15:33:21.117Z,6.50
2018-01-19T15:35:48.007Z,6.50
2018-01-19T15:38:14.939Z,6.70
2018-01-19T15:40:42.536Z,6.50
2018-01-19T15:43:09.399Z,6.50
2018-01-19T15:45:36.319Z,6.40
2018-01-19T15:48:03.175Z,6.30
2018-01-19T15:50:30.131Z,6.30
2018-01-19T15:52:57.007Z,6.30
2018-01-19T15:55:24.684Z,6.40
2018-01-19T15:57:52.473Z,6.40
2018-01-19T16:00:19.385Z,6.40
2018-01-19T16:02:47.086Z,6.50
2018-01-19T16:05:13.959Z,6.50
2018-01-19T16:07:40.858Z,6.50
2018-01-19T16:10:07.707Z,6.60
2018-01-19T16:12:34.694Z,6.60
2018-01-19T16:17:45.801Z,6.60
2018-01-19T16:20:13.710Z,6.60
2018-01-19T16:22:40.735Z,6.50
2018-01-19T16:25:08.311Z,6.50
2018-01-19T16:27:35.360Z,6.40
2018-01-19T16:30:05.274Z,6.40
2018-01-19T16:32:41.367Z,6.30
2018-01-19T16:35:09.084Z,6.30
2018-01-19T16:37:42.743Z,6.30
2018-01-19T16:40:13.447Z,6.30
2018-01-19T16:42:48.952Z,6.40
2018-01-19T16:45:18.454Z,6.40
2018-01-19T16:47:47.665Z,6.30
2018-01-19T16:50:15.802Z,6.30
2018-01-19T16:52:46.236Z,6.30
2018-01-19T16:55:15.577Z,6.20
2018-01-19T16:57:45.548Z,6.20
2018-01-19T17:00:16.397Z,5.90
2018-01-19T17:02:45.330Z,5.90
2018-01-19T17:05:14.160Z,5.80
2018-01-19T17:07:43.301Z,5.70
2018-01-19T17:10:12.079Z,5.70
2018-01-19T17:12:41.288Z,5.60
2018-01-19T17:15:10.343Z,5.50
2018-01-19T17:17:40.563Z,5.30
2018-01-19T17:20:09.514Z,5.30
2018-01-19T17:22:38.859Z,5.20
2018-01-19T17:25:07.750Z,5.10
2018-01-19T17:27:36.546Z,5.10
2018-01-19T17:30:05.443Z,5.10
2018-01-19T17:32:34.898Z,5.10
2018-01-19T17:35:04.554Z,5.00
2018-01-19T17:37:42.761Z,5.00
2018-01-19T17:40:17.173Z,4.90
2018-01-19T17:42:53.324Z,4.90
2018-01-19T17:45:20.542Z,4.90
2018-01-19T17:47:47.996Z,4.80
2018-01-19T17:50:24.538Z,4.80
2018-01-19T17:52:58.765Z,4.80
2018-01-19T17:55:34.606Z,4.80
2018-01-19T17:58:08.747Z,4.70
2018-01-19T18:00:35.691Z,4.70
2018-01-19T18:03:02.548Z,4.60
2018-01-19T18:05:29.487Z,4.70
2018-01-19T18:07:56.344Z,4.80
2018-01-19T18:10:23.217Z,4.70
2018-01-19T18:12:50.134Z,4.80
2018-01-19T18:15:17.027Z,4.70
2018-01-19T18:17:43.953Z,4.70
2018-01-19T18:20:11.554Z,4.70
2018-01-19T18:22:38.473Z,4.70
2018-01-19T18:25:05.444Z,4.70
2018-01-19T18:27:32.382Z,4.70
2018-01-19T18:29:59.220Z,4.70
2018-01-19T18:32:26.164Z,4.70
2018-01-19T18:34:53.043Z,4.80
2018-01-19T18:37:19.983Z,4.80
2018-01-19T18:39:46.844Z,4.80
2018-01-19T18:42:13.701Z,4.70
2018-01-19T18:44:40.644Z,4.70
2018-01-19T18:47:07.502Z,4.70
2018-01-19T18:49:34.511Z,4.70
2018-01-19T18:52:01.377Z,4.60
2018-01-19T18:54:28.311Z,4.60
2018-01-19T18:56:55.253Z,4.60
2018-01-19T18:59:22.223Z,4.60
2018-01-19T19:01:49.176Z,4.60
2018-01-19T19:04:16.203Z,4.50
2018-01-19T19:06:43.067Z,4.40
2018-01-19T19:09:09.992Z,4.40
2018-01-19T19:11:36.997Z,4.30
2018-01-19T19:14:03.943Z,4.30
2018-01-19T19:16:30.817Z,4.20
2018-01-19T19:18:57.715Z,4.20
2018-01-19T19:21:25.491Z,4.20
2018-01-19T19:23:53.187Z,4.20
2018-01-19T19:26:20.050Z,4.20
2018-01-19T19:28:46.987Z,4.10
2018-01-19T19:31:14.073Z,4.00
2018-01-19T19:33:41.887Z,4.00
2018-01-19T19:36:08.751Z,4.00
2018-01-19T19:38:35.707Z,4.00
2018-01-19T19:41:02.651Z,4.00
2018-01-19T19:43:29.667Z,4.00
2018-01-19T19:45:56.603Z,4.00
2018-01-19T19:48:23.583Z,3.90
2018-01-19T19:50:50.430Z,3.90
2018-01-19T19:53:17.304Z,3.90
2018-01-19T19:55:44.314Z,3.90
2018-01-19T19:58:11.194Z,3.90
2018-01-19T20:00:38.100Z,3.90
2018-01-19T20:03:05.086Z,3.90
2018-01-19T20:05:32.164Z,3.90
2018-01-19T20:07:59.047Z,3.80
2018-01-19T20:10:25.979Z,3.80
2018-01-19T20:12:52.931Z,3.70
2018-01-19T20:15:19.829Z,3.80
2018-01-19T20:17:47.671Z,3.70
2018-01-19T20:20:14.603Z,3.70
2018-01-19T20:22:41.488Z,3.70
2018-01-19T20:25:09.176Z,3.60
2018-01-19T20:27:36.169Z,3.60
2018-01-19T20:30:03.176Z,3.70
2018-01-19T20:32:30.068Z,3.70
2018-01-19T20:34:57.017Z,3.70
2018-01-19T20:37:23.973Z,3.70
2018-01-19T20:39:51.090Z,3.60
2018-01-19T20:42:18.090Z,3.80
2018-01-19T20:44:45.141Z,3.80
2018-01-19T20:47:12.175Z,3.80
2018-01-19T20:49:39.156Z,3.80
2018-01-19T20:52:06.152Z,3.90
2018-01-19T20:54:33.849Z,4.00
2018-01-19T20:57:01.609Z,4.10
2018-01-19T20:59:29.334Z,4.20
2018-01-19T21:01:56.258Z,4.20
2018-01-19T21:04:23.267Z,4.20
2018-01-19T21:06:50.943Z,4.20
2018-01-19T21:09:17.862Z,4.20
2018-01-19T21:11:45.547Z,4.20
2018-01-19T21:14:12.393Z,4.20
2018-01-19T21:16:39.339Z,4.20
2018-01-19T21:19:06.231Z,4.20
2018-01-19T21:21:33.120Z,4.10
2018-01-19T21:24:00.049Z,4.10
2018-01-19T21:26:27.674Z,4.00
2018-01-19T21:28:54.586Z,4.00
2018-01-19T21:31:21.434Z,3.90
2018-01-19T21:33:53.818Z,3.90
2018-01-19T21:36:20.678Z,3.90
2018-01-19T21:38:47.591Z,3.90
2018-01-19T21:41:16.219Z,3.80
2018-01-19T21:43:49.602Z,3.70
2018-01-19T21:46:16.458Z,3.80
2018-01-19T21:48:48.600Z,3.70
2018-01-19T21:51:15.440Z,3.70
2018-01-19T21:53:42.283Z,3.70
2018-01-19T21:56:09.194Z,3.70
2018-01-19T21:58:38.693Z,3.70
2018-01-19T22:01:05.631Z,3.70
2018-01-19T22:03:32.488Z,3.60
2018-01-19T22:05:59.358Z,3.70
2018-01-19T22:08:26.296Z,3.60
2018-01-19T22:10:53.958Z,3.60
2018-01-19T22:13:24.967Z,3.60
2018-01-19T22:15:51.822Z,3.60
2018-01-19T22:18:18.672Z,3.60
2018-01-19T22:20:50.323Z,3.60
2018-01-19T22:23:17.191Z,3.60
2018-01-19T22:25:44.862Z,3.60
2018-01-19T22:28:11.712Z,3.60
2018-01-19T22:30:47.096Z,3.50
2018-01-19T22:33:14.011Z,3.50
2018-01-19T22:35:41.022Z,3.50
2018-01-19T22:38:07.958Z,3.60
2018-01-19T22:40:34.844Z,3.50
2018-01-19T22:43:01.786Z,3.50
2018-01-19T22:45:28.722Z,3.50
2018-01-19T22:47:56.388Z,3.60
2018-01-19T22:50:24.058Z,3.50
2018-01-19T22:52:50.978Z,3.50
2018-01-19T22:55:18.612Z,3.60
2018-01-19T22:57:45.487Z,3.60
2018-01-19T23:00:19.212Z,3.60
2018-01-19T23:02:46.136Z,3.60
2018-01-19T23:05:13.053Z,3.60
2018-01-19T23:07:39.912Z,3.50
2018-01-19T23:10:06.768Z,3.50
2018-01-19T23:12:33.688Z,3.50
2018-01-19T23:15:00.531Z,3.50
2018-01-19T23:17:27.440Z,3.60
2018-01-19T23:19:54.495Z,3.50
2018-01-19T23:22:21.471Z,3.40
2018-01-19T23:24:48.312Z,3.50
2018-01-19T23:27:15.390Z,3.50
2018-01-19T23:29:42.239Z,3.50
2018-01-19T23:32:09.080Z,3.50
2018-01-19T23:34:35.998Z,3.50
2018-01-19T23:37:02.919Z,3.50
2018-01-19T23:39:32.734Z,3.50
2018-01-19T23:42:00.395Z,3.50
2018-01-19T23:44:27.334Z,3.50
2018-01-19T23:46:54.189Z,3.40
2018-01-19T23:49:21.040Z,3.30
2018-01-19T23:51:47.986Z,3.40
2018-01-19T23:54:14.832Z,3.30
2018-01-19T23:56:41.748Z,3.20
2018-01-19T23:59:08.658Z,3.30
